sensor_id;sensor_type;location;lat;lon;timestamp;pressure;altitude;pressure_sealevel;temperature;humidity
76853;BME280;65825;52.232;10.566;2023-07-22T00:00:26;100427.31;;;13.46;100.00
76853;BME280;65825;52.232;10.566;2023-07-22T00:02:51;100428.09;;;13.48;100.00
76853;BME280;65825;52.232;10.566;2023-07-22T00:05:16;100428.31;;;13.43;100.00
76853;BME280;65825;52.232;10.566;2023-07-22T00:07:48;100432.91;;;13.40;100.00
76853;BME280;65825;52.232;10.566;2023-07-22T00:10:13;100429.97;;;13.46;100.00
76853;BME280;65825;52.232;10.566;2023-07-22T00:12:38;100431.16;;;13.39;100.00
76853;BME280;65825;52.232;10.566;2023-07-22T00:15:04;100434.97;;;13.33;100.00
76853;BME280;65825;52.232;10.566;2023-07-22T00:17:31;100433.38;;;13.29;100.00
76853;BME280;65825;52.232;10.566;2023-07-22T00:19:56;100437.56;;;13.35;100.00
76853;BME280;65825;52.232;10.566;2023-07-22T00:22:21;100439.28;;;13.36;100.00
76853;BME280;65825;52.232;10.566;2023-07-22T00:24:47;100442.94;;;13.33;100.00
76853;BME280;65825;52.232;10.566;2023-07-22T00:27:12;100445.16;;;13.24;100.00
76853;BME280;65825;52.232;10.566;2023-07-22T00:29:37;100438.75;;;13.28;100.00
76853;BME280;65825;52.232;10.566;2023-07-22T00:32:05;100448.66;;;13.24;100.00
76853;BME280;65825;52.232;10.566;2023-07-22T00:34:32;100441.47;;;13.26;100.00
76853;BME280;65825;52.232;10.566;2023-07-22T00:36:57;100442.34;;;13.27;100.00
76853;BME280;65825;52.232;10.566;2023-07-22T00:39:23;100436.16;;;13.26;100.00
76853;BME280;65825;52.232;10.566;2023-07-22T00:41:48;100435.63;;;13.20;100.00
76853;BME280;65825;52.232;10.566;2023-07-22T00:44:13;100439.47;;;13.13;100.00
76853;BME280;65825;52.232;10.566;2023-07-22T00:46:39;100437.81;;;13.10;100.00
76853;BME280;65825;52.232;10.566;2023-07-22T00:49:08;100447.34;;;13.14;100.00
76853;BME280;65825;52.232;10.566;2023-07-22T00:51:34;100446.41;;;13.15;100.00
76853;BME280;65825;52.232;10.566;2023-07-22T00:53:59;100445.91;;;13.07;100.00
76853;BME280;65825;52.232;10.566;2023-07-22T00:56:25;100446.25;;;13.00;100.00
76853;BME280;65825;52.232;10.566;2023-07-22T00:58:51;100445.91;;;12.87;100.00
76853;BME280;65825;52.232;10.566;2023-07-22T01:01:17;100449.63;;;12.83;100.00
76853;BME280;65825;52.232;10.566;2023-07-22T01:03:42;100437.75;;;12.92;100.00
76853;BME280;65825;52.232;10.566;2023-07-22T01:06:09;100435.72;;;12.78;100.00
76853;BME280;65825;52.232;10.566;2023-07-22T01:08:34;100439.75;;;12.87;100.00
76853;BME280;65825;52.232;10.566;2023-07-22T01:11:00;100444.53;;;12.79;100.00
76853;BME280;65825;52.232;10.566;2023-07-22T01:13:25;100440.97;;;12.80;100.00
76853;BME280;65825;52.232;10.566;2023-07-22T01:15:51;100438.97;;;12.85;100.00
76853;BME280;65825;52.232;10.566;2023-07-22T01:18:17;100436.66;;;12.77;100.00
76853;BME280;65825;52.232;10.566;2023-07-22T01:20:43;100443.59;;;12.80;100.00
76853;BME280;65825;52.232;10.566;2023-07-22T01:23:09;100437.44;;;12.79;100.00
76853;BME280;65825;52.232;10.566;2023-07-22T01:25:34;100447.03;;;12.82;100.00
76853;BME280;65825;52.232;10.566;2023-07-22T01:27:59;100445.03;;;12.87;100.00
76853;BME280;65825;52.232;10.566;2023-07-22T01:30:25;100452.81;;;12.91;100.00
76853;BME280;65825;52.232;10.566;2023-07-22T01:32:52;100441.22;;;12.94;100.00
76853;BME280;65825;52.232;10.566;2023-07-22T01:35:18;100454.06;;;13.03;100.00
76853;BME280;65825;52.232;10.566;2023-07-22T01:37:43;100454.59;;;12.91;100.00
76853;BME280;65825;52.232;10.566;2023-07-22T01:40:09;100459.16;;;12.87;100.00
76853;BME280;65825;52.232;10.566;2023-07-22T01:42:41;100457.50;;;12.85;100.00
76853;BME280;65825;52.232;10.566;2023-07-22T01:45:07;100454.75;;;12.88;100.00
76853;BME280;65825;52.232;10.566;2023-07-22T01:47:39;100450.56;;;12.82;100.00
76853;BME280;65825;52.232;10.566;2023-07-22T01:50:06;100450.84;;;12.76;100.00
76853;BME280;65825;52.232;10.566;2023-07-22T01:52:31;100445.88;;;12.69;100.00
76853;BME280;65825;52.232;10.566;2023-07-22T01:54:57;100450.13;;;12.73;100.00
76853;BME280;65825;52.232;10.566;2023-07-22T01:57:22;100450.84;;;12.76;100.00
76853;BME280;65825;52.232;10.566;2023-07-22T01:59:47;100453.66;;;12.72;100.00
76853;BME280;65825;52.232;10.566;2023-07-22T02:02:13;100451.78;;;12.75;100.00
76853;BME280;65825;52.232;10.566;2023-07-22T02:04:38;100460.84;;;12.70;100.00
76853;BME280;65825;52.232;10.566;2023-07-22T02:07:04;100460.94;;;12.67;100.00
76853;BME280;65825;52.232;10.566;2023-07-22T02:09:29;100457.59;;;12.63;100.00
76853;BME280;65825;52.232;10.566;2023-07-22T02:11:54;100459.06;;;12.70;100.00
76853;BME280;65825;52.232;10.566;2023-07-22T02:14:20;100457.72;;;12.60;100.00
76853;BME280;65825;52.232;10.566;2023-07-22T02:16:45;100462.47;;;12.52;100.00
76853;BME280;65825;52.232;10.566;2023-07-22T02:19:10;100469.75;;;12.47;100.00
76853;BME280;65825;52.232;10.566;2023-07-22T02:21:36;100472.72;;;12.40;100.00
76853;BME280;65825;52.232;10.566;2023-07-22T02:24:01;100475.84;;;12.29;100.00
76853;BME280;65825;52.232;10.566;2023-07-22T02:26:26;100467.97;;;12.28;100.00
76853;BME280;65825;52.232;10.566;2023-07-22T02:28:52;100469.84;;;12.26;100.00
76853;BME280;65825;52.232;10.566;2023-07-22T02:31:17;100475.91;;;12.28;100.00
76853;BME280;65825;52.232;10.566;2023-07-22T02:33:42;100468.53;;;12.14;100.00
76853;BME280;65825;52.232;10.566;2023-07-22T02:36:08;100472.78;;;12.18;100.00
76853;BME280;65825;52.232;10.566;2023-07-22T02:38:33;100473.03;;;12.12;100.00
76853;BME280;65825;52.232;10.566;2023-07-22T02:41:03;100475.59;;;12.14;100.00
76853;BME280;65825;52.232;10.566;2023-07-22T02:43:31;100481.94;;;12.10;100.00
76853;BME280;65825;52.232;10.566;2023-07-22T02:45:56;100469.78;;;12.06;100.00
76853;BME280;65825;52.232;10.566;2023-07-22T02:48:22;100472.75;;;11.98;100.00
76853;BME280;65825;52.232;10.566;2023-07-22T02:50:48;100474.94;;;12.09;100.00
76853;BME280;65825;52.232;10.566;2023-07-22T02:53:14;100483.13;;;12.03;100.00
76853;BME280;65825;52.232;10.566;2023-07-22T02:55:39;100488.00;;;11.92;100.00
76853;BME280;65825;52.232;10.566;2023-07-22T02:58:04;100493.41;;;11.89;100.00
76853;BME280;65825;52.232;10.566;2023-07-22T03:00:30;100492.34;;;11.93;100.00
76853;BME280;65825;52.232;10.566;2023-07-22T03:02:56;100488.97;;;11.89;100.00
76853;BME280;65825;52.232;10.566;2023-07-22T03:05:29;100489.09;;;11.86;100.00
76853;BME280;65825;52.232;10.566;2023-07-22T03:07:55;100486.88;;;11.76;100.00
76853;BME280;65825;52.232;10.566;2023-07-22T03:10:21;100490.16;;;11.82;100.00
76853;BME280;65825;52.232;10.566;2023-07-22T03:12:46;100490.84;;;11.87;100.00
76853;BME280;65825;52.232;10.566;2023-07-22T03:15:12;100495.00;;;11.93;100.00
76853;BME280;65825;52.232;10.566;2023-07-22T03:17:38;100492.88;;;12.02;100.00
76853;BME280;65825;52.232;10.566;2023-07-22T03:20:05;100499.19;;;11.98;100.00
76853;BME280;65825;52.232;10.566;2023-07-22T03:22:38;100495.25;;;12.08;100.00
76853;BME280;65825;52.232;10.566;2023-07-22T03:25:04;100502.13;;;12.12;100.00
76853;BME280;65825;52.232;10.566;2023-07-22T03:27:33;100513.69;;;12.10;100.00
76853;BME280;65825;52.232;10.566;2023-07-22T03:29:58;100513.47;;;12.16;100.00
76853;BME280;65825;52.232;10.566;2023-07-22T03:32:23;100509.09;;;12.15;100.00
76853;BME280;65825;52.232;10.566;2023-07-22T03:34:49;100506.22;;;12.21;100.00
76853;BME280;65825;52.232;10.566;2023-07-22T03:37:14;100506.22;;;12.21;100.00
76853;BME280;65825;52.232;10.566;2023-07-22T03:39:39;100516.97;;;12.16;100.00
76853;BME280;65825;52.232;10.566;2023-07-22T03:42:05;100512.28;;;12.23;100.00
76853;BME280;65825;52.232;10.566;2023-07-22T03:44:30;100516.03;;;12.39;100.00
76853;BME280;65825;52.232;10.566;2023-07-22T03:46:56;100514.13;;;12.62;100.00
76853;BME280;65825;52.232;10.566;2023-07-22T03:49:21;100515.47;;;12.72;100.00
76853;BME280;65825;52.232;10.566;2023-07-22T03:51:46;100513.88;;;12.68;100.00
76853;BME280;65825;52.232;10.566;2023-07-22T03:54:11;100512.16;;;12.67;100.00
76853;BME280;65825;52.232;10.566;2023-07-22T03:56:39;100505.66;;;12.74;100.00
76853;BME280;65825;52.232;10.566;2023-07-22T03:59:05;100510.94;;;12.94;100.00
76853;BME280;65825;52.232;10.566;2023-07-22T04:01:30;100510.69;;;13.00;100.00
76853;BME280;65825;52.232;10.566;2023-07-22T04:03:56;100506.41;;;12.98;100.00
76853;BME280;65825;52.232;10.566;2023-07-22T04:06:21;100511.47;;;13.04;100.00
76853;BME280;65825;52.232;10.566;2023-07-22T04:08:46;100507.06;;;13.03;100.00
76853;BME280;65825;52.232;10.566;2023-07-22T04:11:11;100509.72;;;12.83;100.00
76853;BME280;65825;52.232;10.566;2023-07-22T04:13:39;100511.78;;;12.96;100.00
76853;BME280;65825;52.232;10.566;2023-07-22T04:16:04;100514.16;;;13.02;100.00
76853;BME280;65825;52.232;10.566;2023-07-22T04:18:29;100519.13;;;13.10;100.00
76853;BME280;65825;52.232;10.566;2023-07-22T04:20:59;100520.97;;;13.08;100.00
76853;BME280;65825;52.232;10.566;2023-07-22T04:23:25;100522.75;;;13.27;100.00
76853;BME280;65825;52.232;10.566;2023-07-22T04:25:51;100526.25;;;13.28;100.00
76853;BME280;65825;52.232;10.566;2023-07-22T04:28:16;100523.81;;;13.23;100.00
76853;BME280;65825;52.232;10.566;2023-07-22T04:30:42;100533.38;;;13.46;100.00
76853;BME280;65825;52.232;10.566;2023-07-22T04:33:07;100535.47;;;13.58;100.00
76853;BME280;65825;52.232;10.566;2023-07-22T04:35:37;100525.78;;;13.75;100.00
76853;BME280;65825;52.232;10.566;2023-07-22T04:38:03;100524.13;;;13.73;100.00
76853;BME280;65825;52.232;10.566;2023-07-22T04:40:28;100533.22;;;13.67;100.00
76853;BME280;65825;52.232;10.566;2023-07-22T04:42:55;100537.69;;;13.67;100.00
76853;BME280;65825;52.232;10.566;2023-07-22T04:45:22;100530.44;;;13.70;100.00
76853;BME280;65825;52.232;10.566;2023-07-22T04:47:49;100532.22;;;13.51;100.00
76853;BME280;65825;52.232;10.566;2023-07-22T04:50:14;100533.22;;;13.67;100.00
76853;BME280;65825;52.232;10.566;2023-07-22T04:52:42;100541.47;;;13.80;100.00
76853;BME280;65825;52.232;10.566;2023-07-22T04:55:08;100541.47;;;13.80;100.00
76853;BME280;65825;52.232;10.566;2023-07-22T04:57:38;100537.81;;;13.82;100.00
76853;BME280;65825;52.232;10.566;2023-07-22T05:00:09;100533.81;;;13.74;100.00
76853;BME280;65825;52.232;10.566;2023-07-22T05:02:35;100534.53;;;13.77;100.00
76853;BME280;65825;52.232;10.566;2023-07-22T05:05:00;100541.19;;;13.67;100.00
76853;BME280;65825;52.232;10.566;2023-07-22T05:07:25;100547.50;;;13.65;100.00
76853;BME280;65825;52.232;10.566;2023-07-22T05:09:51;100554.31;;;13.70;100.00
76853;BME280;65825;52.232;10.566;2023-07-22T05:12:17;100552.91;;;13.63;100.00
76853;BME280;65825;52.232;10.566;2023-07-22T05:14:42;100554.25;;;13.72;100.00
76853;BME280;65825;52.232;10.566;2023-07-22T05:17:07;100551.97;;;13.83;100.00
76853;BME280;65825;52.232;10.566;2023-07-22T05:19:33;100542.06;;;13.86;100.00
76853;BME280;65825;52.232;10.566;2023-07-22T05:21:58;100556.19;;;13.87;100.00
76853;BME280;65825;52.232;10.566;2023-07-22T05:24:23;100553.09;;;13.96;100.00
76853;BME280;65825;52.232;10.566;2023-07-22T05:26:48;100554.59;;;14.01;100.00
76853;BME280;65825;52.232;10.566;2023-07-22T05:29:14;100547.66;;;13.99;100.00
76853;BME280;65825;52.232;10.566;2023-07-22T05:31:39;100554.38;;;14.06;100.00
76853;BME280;65825;52.232;10.566;2023-07-22T05:34:04;100550.66;;;14.10;100.00
76853;BME280;65825;52.232;10.566;2023-07-22T05:36:30;100557.38;;;14.17;100.00
76853;BME280;65825;52.232;10.566;2023-07-22T05:38:55;100564.16;;;14.24;100.00
76853;BME280;65825;52.232;10.566;2023-07-22T05:41:20;100563.94;;;14.28;100.00
76853;BME280;65825;52.232;10.566;2023-07-22T05:43:46;100562.63;;;14.37;100.00
76853;BME280;65825;52.232;10.566;2023-07-22T05:46:11;100563.81;;;14.48;100.00
76853;BME280;65825;52.232;10.566;2023-07-22T05:48:36;100569.75;;;14.53;98.60
76853;BME280;65825;52.232;10.566;2023-07-22T05:51:02;100569.75;;;14.53;97.78
76853;BME280;65825;52.232;10.566;2023-07-22T05:53:27;100559.53;;;14.63;98.38
76853;BME280;65825;52.232;10.566;2023-07-22T05:55:52;100575.31;;;14.49;98.71
76853;BME280;65825;52.232;10.566;2023-07-22T05:58:18;100566.16;;;14.54;97.88
76853;BME280;65825;52.232;10.566;2023-07-22T06:00:43;100573.63;;;14.65;98.05
76853;BME280;65825;52.232;10.566;2023-07-22T06:03:09;100567.03;;;14.72;95.48
76853;BME280;65825;52.232;10.566;2023-07-22T06:05:34;100567.44;;;14.81;95.41
76853;BME280;65825;52.232;10.566;2023-07-22T06:07:59;100573.09;;;14.92;95.76
76853;BME280;65825;52.232;10.566;2023-07-22T06:10:25;100570.88;;;15.00;95.21
76853;BME280;65825;52.232;10.566;2023-07-22T06:12:50;100577.31;;;15.13;92.49
76853;BME280;65825;52.232;10.566;2023-07-22T06:15:15;100575.78;;;15.25;93.07
76853;BME280;65825;52.232;10.566;2023-07-22T06:17:41;100586.66;;;15.37;91.61
76853;BME280;65825;52.232;10.566;2023-07-22T06:20:07;100586.34;;;15.60;89.24
76853;BME280;65825;52.232;10.566;2023-07-22T06:22:32;100577.94;;;15.83;85.56
76853;BME280;65825;52.232;10.566;2023-07-22T06:24:58;100583.91;;;16.19;86.25
76853;BME280;65825;52.232;10.566;2023-07-22T06:27:23;100583.66;;;16.24;83.42
76853;BME280;65825;52.232;10.566;2023-07-22T06:29:48;100591.56;;;16.10;82.96
76853;BME280;65825;52.232;10.566;2023-07-22T06:32:13;100586.22;;;16.10;84.14
76853;BME280;65825;52.232;10.566;2023-07-22T06:34:39;100582.50;;;16.28;82.05
76853;BME280;65825;52.232;10.566;2023-07-22T06:37:04;100592.41;;;15.95;84.66
76853;BME280;65825;52.232;10.566;2023-07-22T06:39:29;100591.38;;;15.97;84.42
76853;BME280;65825;52.232;10.566;2023-07-22T06:41:55;100590.44;;;16.14;83.27
76853;BME280;65825;52.232;10.566;2023-07-22T06:44:20;100589.28;;;15.87;82.26
76853;BME280;65825;52.232;10.566;2023-07-22T06:46:46;100594.22;;;16.56;82.03
76853;BME280;65825;52.232;10.566;2023-07-22T06:49:11;100593.47;;;16.54;79.78
76853;BME280;65825;52.232;10.566;2023-07-22T06:51:37;100595.41;;;16.82;78.83
76853;BME280;65825;52.232;10.566;2023-07-22T06:54:03;100593.38;;;16.56;78.47
76853;BME280;65825;52.232;10.566;2023-07-22T06:56:28;100595.84;;;16.74;79.40
76853;BME280;65825;52.232;10.566;2023-07-22T06:58:53;100590.28;;;16.93;79.71
76853;BME280;65825;52.232;10.566;2023-07-22T07:01:19;100594.97;;;17.03;78.56
76853;BME280;65825;52.232;10.566;2023-07-22T07:03:44;100590.66;;;16.71;78.52
76853;BME280;65825;52.232;10.566;2023-07-22T07:06:10;100583.16;;;17.07;78.34
76853;BME280;65825;52.232;10.566;2023-07-22T07:08:35;100582.09;;;17.25;77.96
76853;BME280;65825;52.232;10.566;2023-07-22T07:11:02;100588.44;;;17.66;74.57
76853;BME280;65825;52.232;10.566;2023-07-22T07:13:27;100580.31;;;17.40;74.54
76853;BME280;65825;52.232;10.566;2023-07-22T07:15:54;100587.75;;;17.63;74.87
76853;BME280;65825;52.232;10.566;2023-07-22T07:18:19;100581.19;;;17.68;73.38
76853;BME280;65825;52.232;10.566;2023-07-22T07:20:45;100579.84;;;17.75;71.88
76853;BME280;65825;52.232;10.566;2023-07-22T07:23:12;100580.31;;;17.68;73.29
76853;BME280;65825;52.232;10.566;2023-07-22T07:25:38;100582.03;;;17.97;73.17
76853;BME280;65825;52.232;10.566;2023-07-22T07:28:04;100576.94;;;18.06;71.56
76853;BME280;65825;52.232;10.566;2023-07-22T07:30:29;100585.44;;;18.13;70.62
76853;BME280;65825;52.232;10.566;2023-07-22T07:32:54;100578.84;;;18.59;68.81
76853;BME280;65825;52.232;10.566;2023-07-22T07:35:19;100579.22;;;18.79;66.93
76853;BME280;65825;52.232;10.566;2023-07-22T07:37:45;100585.72;;;18.63;67.57
76853;BME280;65825;52.232;10.566;2023-07-22T07:40:11;100586.47;;;18.65;67.36
76853;BME280;65825;52.232;10.566;2023-07-22T07:42:36;100593.34;;;18.69;65.60
76853;BME280;65825;52.232;10.566;2023-07-22T07:45:02;100593.94;;;18.60;67.76
76853;BME280;65825;52.232;10.566;2023-07-22T07:47:27;100594.06;;;17.90;68.19
76853;BME280;65825;52.232;10.566;2023-07-22T07:49:52;100608.38;;;17.75;70.27
76853;BME280;65825;52.232;10.566;2023-07-22T07:52:17;100593.84;;;17.79;70.33
76853;BME280;65825;52.232;10.566;2023-07-22T07:54:43;100600.81;;;18.09;67.09
76853;BME280;65825;52.232;10.566;2023-07-22T07:57:08;100595.38;;;17.97;67.82
76853;BME280;65825;52.232;10.566;2023-07-22T07:59:33;100602.97;;;18.31;69.45
76853;BME280;65825;52.232;10.566;2023-07-22T08:01:59;100608.91;;;17.94;69.44
76853;BME280;65825;52.232;10.566;2023-07-22T08:04:24;100612.25;;;18.39;68.76
76853;BME280;65825;52.232;10.566;2023-07-22T08:06:49;100615.75;;;18.40;69.98
76853;BME280;65825;52.232;10.566;2023-07-22T08:09:15;100612.53;;;18.35;69.58
76853;BME280;65825;52.232;10.566;2023-07-22T08:11:45;100611.59;;;18.22;69.49
76853;BME280;65825;52.232;10.566;2023-07-22T08:14:10;100610.09;;;18.85;69.60
76853;BME280;65825;52.232;10.566;2023-07-22T08:16:36;100604.16;;;19.06;64.95
76853;BME280;65825;52.232;10.566;2023-07-22T08:19:01;100611.50;;;18.90;64.77
76853;BME280;65825;52.232;10.566;2023-07-22T08:21:27;100612.38;;;19.42;61.88
76853;BME280;65825;52.232;10.566;2023-07-22T08:23:52;100618.63;;;19.16;61.46
76853;BME280;65825;52.232;10.566;2023-07-22T08:26:17;100621.75;;;19.23;62.45
76853;BME280;65825;52.232;10.566;2023-07-22T08:28:46;100616.00;;;20.29;58.84
76853;BME280;65825;52.232;10.566;2023-07-22T08:31:11;100614.28;;;20.64;57.49
76853;BME280;65825;52.232;10.566;2023-07-22T08:33:37;100616.56;;;19.84;61.12
76853;BME280;65825;52.232;10.566;2023-07-22T08:36:02;100628.69;;;19.77;62.24
76853;BME280;65825;52.232;10.566;2023-07-22T08:38:27;100625.00;;;19.40;61.35
76853;BME280;65825;52.232;10.566;2023-07-22T08:40:53;100626.50;;;19.32;62.26
76853;BME280;65825;52.232;10.566;2023-07-22T08:43:22;100629.38;;;19.29;62.64
76853;BME280;65825;52.232;10.566;2023-07-22T08:45:49;100625.66;;;19.81;60.88
76853;BME280;65825;52.232;10.566;2023-07-22T08:48:16;100628.81;;;20.49;58.85
76853;BME280;65825;52.232;10.566;2023-07-22T08:50:57;100633.53;;;21.39;53.86
76853;BME280;65825;52.232;10.566;2023-07-22T08:53:24;100629.38;;;22.25;53.04
76853;BME280;65825;52.232;10.566;2023-07-22T08:55:50;100630.19;;;20.42;56.51
76853;BME280;65825;52.232;10.566;2023-07-22T08:58:16;100625.66;;;20.55;57.86
76853;BME280;65825;52.232;10.566;2023-07-22T09:00:43;100631.97;;;22.48;53.36
76853;BME280;65825;52.232;10.566;2023-07-22T09:03:09;100635.59;;;22.69;49.96
76853;BME280;65825;52.232;10.566;2023-07-22T09:05:35;100631.06;;;21.71;52.15
76853;BME280;65825;52.232;10.566;2023-07-22T09:08:02;100628.50;;;21.00;54.82
76853;BME280;65825;52.232;10.566;2023-07-22T09:10:28;100628.66;;;21.33;55.93
76853;BME280;65825;52.232;10.566;2023-07-22T09:12:54;100628.38;;;21.02;54.97
76853;BME280;65825;52.232;10.566;2023-07-22T09:15:20;100623.16;;;20.88;55.98
76853;BME280;65825;52.232;10.566;2023-07-22T09:17:46;100623.97;;;22.58;50.75
76853;BME280;65825;52.232;10.566;2023-07-22T09:20:11;100622.75;;;23.04;50.54
76853;BME280;65825;52.232;10.566;2023-07-22T09:22:46;100613.69;;;21.64;53.90
76853;BME280;65825;52.232;10.566;2023-07-22T09:25:19;100618.94;;;21.20;55.26
76853;BME280;65825;52.232;10.566;2023-07-22T09:27:47;100614.66;;;19.73;60.08
76853;BME280;65825;52.232;10.566;2023-07-22T09:30:26;100619.88;;;19.37;61.39
76853;BME280;65825;52.232;10.566;2023-07-22T09:33:02;100625.53;;;19.33;62.18
76853;BME280;65825;52.232;10.566;2023-07-22T09:35:30;100620.94;;;22.51;53.52
76853;BME280;65825;52.232;10.566;2023-07-22T09:37:56;100620.94;;;20.58;57.23
76853;BME280;65825;52.232;10.566;2023-07-22T09:40:23;100610.25;;;21.16;55.85
76853;BME280;65825;52.232;10.566;2023-07-22T09:42:51;100614.19;;;23.72;49.40
76853;BME280;65825;52.232;10.566;2023-07-22T09:45:18;100617.06;;;21.44;57.47
76853;BME280;65825;52.232;10.566;2023-07-22T09:47:45;100607.00;;;20.53;60.12
76853;BME280;65825;52.232;10.566;2023-07-22T09:50:16;100611.25;;;20.32;60.62
76853;BME280;65825;52.232;10.566;2023-07-22T09:53:00;100615.47;;;20.24;58.82
76853;BME280;65825;52.232;10.566;2023-07-22T09:55:28;100613.91;;;20.68;60.36
76853;BME280;65825;52.232;10.566;2023-07-22T09:57:56;100609.19;;;20.36;58.52
76853;BME280;65825;52.232;10.566;2023-07-22T10:00:24;100606.59;;;19.86;59.15
76853;BME280;65825;52.232;10.566;2023-07-22T10:02:51;100611.81;;;20.25;58.97
76853;BME280;65825;52.232;10.566;2023-07-22T10:05:18;100615.06;;;22.58;53.49
76853;BME280;65825;52.232;10.566;2023-07-22T10:07:49;100602.59;;;24.02;49.69
76853;BME280;65825;52.232;10.566;2023-07-22T10:10:17;100599.94;;;24.51;49.34
76853;BME280;65825;52.232;10.566;2023-07-22T10:12:43;100607.22;;;22.65;49.59
76853;BME280;65825;52.232;10.566;2023-07-22T10:15:09;100596.19;;;23.32;50.47
76853;BME280;65825;52.232;10.566;2023-07-22T10:17:35;100603.31;;;22.58;52.52
76853;BME280;65825;52.232;10.566;2023-07-22T10:20:01;100598.31;;;26.37;43.14
76853;BME280;65825;52.232;10.566;2023-07-22T10:22:30;100593.13;;;24.17;46.66
76853;BME280;65825;52.232;10.566;2023-07-22T10:24:56;100594.34;;;29.05;40.49
76853;BME280;65825;52.232;10.566;2023-07-22T10:27:22;100588.59;;;29.64;37.27
76853;BME280;65825;52.232;10.566;2023-07-22T10:29:48;100587.69;;;24.56;44.62
76853;BME280;65825;52.232;10.566;2023-07-22T10:32:14;100587.41;;;23.80;46.76
76853;BME280;65825;52.232;10.566;2023-07-22T10:34:39;100584.34;;;29.38;35.47
76853;BME280;65825;52.232;10.566;2023-07-22T10:37:04;100572.31;;;31.10;32.37
76853;BME280;65825;52.232;10.566;2023-07-22T10:39:30;100570.28;;;31.49;31.87
76853;BME280;65825;52.232;10.566;2023-07-22T10:42:05;100581.63;;;30.63;33.41
76853;BME280;65825;52.232;10.566;2023-07-22T10:44:32;100575.75;;;28.77;35.75
76853;BME280;65825;52.232;10.566;2023-07-22T10:46:58;100581.75;;;24.13;45.74
76853;BME280;65825;52.232;10.566;2023-07-22T10:49:27;100582.19;;;22.21;51.36
76853;BME280;65825;52.232;10.566;2023-07-22T10:52:06;100588.38;;;21.10;54.90
76853;BME280;65825;52.232;10.566;2023-07-22T10:54:33;100592.25;;;20.12;57.84
76853;BME280;65825;52.232;10.566;2023-07-22T10:57:03;100589.41;;;20.73;57.00
76853;BME280;65825;52.232;10.566;2023-07-22T10:59:32;100583.22;;;24.27;47.39
76853;BME280;65825;52.232;10.566;2023-07-22T11:01:59;100574.13;;;29.56;36.25
76853;BME280;65825;52.232;10.566;2023-07-22T11:04:26;100569.06;;;26.67;41.61
76853;BME280;65825;52.232;10.566;2023-07-22T11:07:04;100570.84;;;23.34;46.16
76853;BME280;65825;52.232;10.566;2023-07-22T11:12:03;100564.47;;;21.07;54.60
76853;BME280;65825;52.232;10.566;2023-07-22T11:14:41;100568.72;;;20.28;56.64
76853;BME280;65825;52.232;10.566;2023-07-22T11:17:10;100580.44;;;19.89;57.34
76853;BME280;65825;52.232;10.566;2023-07-22T11:19:36;100561.53;;;20.03;57.21
76853;BME280;65825;52.232;10.566;2023-07-22T11:22:02;100562.31;;;22.66;55.89
76853;BME280;65825;52.232;10.566;2023-07-22T11:24:27;100554.00;;;30.96;34.91
76853;BME280;65825;52.232;10.566;2023-07-22T11:26:53;100541.22;;;30.74;32.34
76853;BME280;65825;52.232;10.566;2023-07-22T11:29:19;100542.38;;;28.01;36.99
76853;BME280;65825;52.232;10.566;2023-07-22T11:31:46;100545.13;;;28.09;36.44
76853;BME280;65825;52.232;10.566;2023-07-22T11:34:14;100547.44;;;28.38;35.34
76853;BME280;65825;52.232;10.566;2023-07-22T11:36:40;100539.72;;;25.17;40.65
76853;BME280;65825;52.232;10.566;2023-07-22T11:39:09;100538.00;;;22.56;45.56
76853;BME280;65825;52.232;10.566;2023-07-22T11:41:37;100543.59;;;22.64;47.52
76853;BME280;65825;52.232;10.566;2023-07-22T11:44:04;100538.13;;;25.52;42.79
76853;BME280;65825;52.232;10.566;2023-07-22T11:49:29;100526.81;;;28.11;36.73
76853;BME280;65825;52.232;10.566;2023-07-22T11:51:57;100521.25;;;28.78;36.21
76853;BME280;65825;52.232;10.566;2023-07-22T11:54:22;100526.47;;;28.56;35.89
76853;BME280;65825;52.232;10.566;2023-07-22T11:56:48;100519.78;;;27.93;34.80
76853;BME280;65825;52.232;10.566;2023-07-22T11:59:13;100518.16;;;24.88;41.70
76853;BME280;65825;52.232;10.566;2023-07-22T12:01:38;100526.72;;;23.14;44.60
76853;BME280;65825;52.232;10.566;2023-07-22T12:04:10;100519.88;;;22.05;47.59
76853;BME280;65825;52.232;10.566;2023-07-22T12:06:36;100535.19;;;21.71;48.65
76853;BME280;65825;52.232;10.566;2023-07-22T12:09:01;100523.75;;;21.35;50.11
76853;BME280;65825;52.232;10.566;2023-07-22T12:11:32;100529.78;;;20.93;51.23
76853;BME280;65825;52.232;10.566;2023-07-22T12:14:12;100529.91;;;21.92;49.59
76853;BME280;65825;52.232;10.566;2023-07-22T12:16:40;100529.28;;;21.66;48.35
76853;BME280;65825;52.232;10.566;2023-07-22T12:19:06;100525.75;;;23.66;45.24
76853;BME280;65825;52.232;10.566;2023-07-22T12:21:32;100517.25;;;25.16;41.32
76853;BME280;65825;52.232;10.566;2023-07-22T12:23:58;100513.00;;;26.50;38.74
76853;BME280;65825;52.232;10.566;2023-07-22T12:26:24;100509.75;;;29.87;32.82
76853;BME280;65825;52.232;10.566;2023-07-22T12:28:49;100509.16;;;27.05;37.48
76853;BME280;65825;52.232;10.566;2023-07-22T12:31:15;100503.06;;;33.55;29.35
76853;BME280;65825;52.232;10.566;2023-07-22T12:33:40;100498.88;;;32.18;31.09
76853;BME280;65825;52.232;10.566;2023-07-22T12:36:05;100490.94;;;30.24;31.00